Terminal Aerodrome Forecast
Issued by NWS

Home | Current Version | Previous Version | Text Only | Print | Product List | Glossary On
Versions: 1 2 3 4 5 6 7 8 9 10 11 12 13 14 15 16 17
000
FTUS41 KBOX 010541
TAFBAF
TAF
KBAF 010541Z 0106/0206 01006KT P6SM OVC050
     FM011300 02011G20KT P6SM OVC035
     FM011500 03011G22KT P6SM OVC015
     FM011700 01011G22KT P6SM -RA OVC015
     FM012100 36012G23KT P6SM OVC015
     FM020000 36012G25KT P6SM OVC025=

USA.gov is the U.S. government's official web portal to all federal, state and local government web resources and services.